Latest Weather Observations for Renmark Airport

IDS60801

Issued at 10:05 am CST Tuesday 16 September 2014 (issued every 30 minutes, with the page automatically refreshed every 10 minutes)

About weather observations | Map of weather stations | Latest weather observations for SA | Other Formats
Station Details ID: 024048 Name: RENMARK AERO Lat: -34.20 Lon: 140.68 Height: 31.5 m
Data from the previous 72 hours. | See also: Recent months at Renmark Airport
Date/Time
CST
Temp
°C
App
Temp
°C
Dew
Point
Rel
Hum
%
Delta-T
°C
Wind Press
QNH
hPa
Press
MSL
hPa
Rain
since 9 am
mm
Dir
 
Spd
km/h
Gust
km/h
Spd
kts
Gust
kts
16/10:00am 16.5 11.5 8.0 57 4.3 SW 24 37 13 20 1017.6 1017.5 0.0
16/09:30am 15.0 9.6 8.0 63 3.5 SSW 26 39 14 21 1017.7 1017.6 0.0
16/09:00am 14.1 8.8 8.3 68 2.9 SW 26 39 14 21 1017.7 1017.6 0.0
16/08:30am 13.5 9.3 8.4 71 2.5 SW 20 33 11 18 1017.6 1017.5 0.0
16/08:00am 12.5 8.5 8.4 76 2.0 SW 19 28 10 15 1017.6 1017.5 0.0
16/07:30am 11.7 8.2 8.6 81 1.5 SW 17 28 9 15 1017.3 1017.2 0.0
16/07:00am 10.1 6.6 8.9 92 0.6 SW 17 24 9 13 1016.9 1016.8 0.0
16/06:30am 9.2 6.2 9.2 100 0.0 WSW 15 24 8 13 1016.6 1016.5 0.0
16/06:00am 9.0 6.3 9.0 100 0.0 WSW 13 17 7 9 1016.3 1016.2 0.0
16/05:30am 9.5 6.4 9.0 97 0.2 WSW 15 20 8 11 1016.0 1015.9 0.0
16/05:00am 10.2 7.2 9.3 94 0.4 WSW 15 24 8 13 1015.7 1015.6 0.0
16/04:30am 10.6 6.9 9.5 93 0.6 WSW 19 28 10 15 1015.3 1015.3 0.0
16/04:00am 10.6 6.9 9.5 93 0.6 WSW 19 26 10 14 1014.9 1014.9 0.0
16/03:30am 10.5 7.5 9.4 93 0.5 WSW 15 24 8 13 1014.7 1014.7 0.0
16/03:00am 11.2 7.4 9.1 87 1.0 WSW 19 26 10 14 1014.5 1014.5 0.0
16/02:30am 11.5 7.0 8.7 83 1.4 SW 22 35 12 19 1014.6 1014.6 0.0
16/02:00am 11.7 7.6 8.6 81 1.5 SW 20 32 11 17 1014.5 1014.5 0.0
16/01:30am 12.1 7.6 8.4 78 1.8 SW 22 33 12 18 1014.6 1014.6 0.0
16/01:00am 12.4 8.6 8.9 79 1.8 SW 19 30 10 16 1014.6 1014.6 0.0
16/12:30am 12.8 8.5 9.3 79 1.8 SW 22 35 12 19 1014.4 1014.4 0.0
16/12:00am 13.3 9.6 9.4 77 2.0 SW 19 30 10 16 1014.4 1014.4 0.0
 
Date/Time
CST
Temp
°C
App
Temp
°C
Dew
Point
Rel
Hum
%
Delta-T
°C
Wind Press
QNH
hPa
Press
MSL
hPa
Rain
since 9 am
mm
Dir
 
Spd
km/h
Gust
km/h
Spd
kts
Gust
kts
15/11:30pm 13.5 8.4 9.2 75 2.2 SW 26 37 14 20 1014.0 1014.0 0.0
15/11:00pm 13.3 7.8 9.0 75 2.2 SW 28 46 15 25 1014.0 1014.0 0.0
15/10:31pm 13.8 8.3 9.3 74 2.3 SW 28 46 15 25 1013.8 1013.8 0.0
15/10:30pm 13.8 8.3 9.3 74 2.3 WSW 28 44 15 24 1013.9 1013.9 0.0
15/10:00pm 13.6 8.8 8.9 73 2.4 WSW 24 33 13 18 1013.9 1013.9 0.0
15/09:31pm 14.1 8.5 8.9 71 2.6 SW 28 50 15 27 1013.8 1013.8 0.0
15/09:30pm 14.1 8.9 8.9 71 2.6 SW 26 50 14 27 1013.8 1013.8 0.0
15/09:00pm 13.5 8.0 9.0 74 2.3 WSW 28 39 15 21 1013.6 1013.6 0.0
15/08:30pm 13.8 8.7 9.3 74 2.3 WSW 26 43 14 23 1013.4 1013.4 0.0
15/08:00pm 14.1 8.9 8.9 71 2.6 WSW 26 43 14 23 1013.2 1013.2 0.0
15/07:30pm 14.4 8.8 8.6 68 2.9 WSW 28 43 15 23 1012.8 1012.8 0.0
15/07:17pm 14.6 8.9 8.5 67 3.1 WSW 28 46 15 25 1012.6 1012.6 0.0
15/07:00pm 14.8 8.7 8.3 65 3.3 WSW 30 43 16 23 1012.3 1012.3 0.0
15/06:30pm 15.3 8.1 7.6 60 3.8 SW 35 54 19 29 1011.9 1011.9 0.0
15/06:00pm 16.0 8.0 7.5 57 4.2 WSW 39 63 21 34 1011.5 1011.5 0.0
15/05:30pm 17.2 9.3 7.8 54 4.8 SW 39 59 21 32 1010.9 1010.9 0.0
15/05:01pm 17.7 11.1 7.7 52 5.1 SW 32 50 17 27 1010.4 1010.4 0.0
15/05:00pm 17.7 10.9 7.7 52 5.1 SW 33 50 18 27 1010.4 1010.4 0.0
15/04:30pm 18.1 10.6 6.3 46 5.8 SW 35 54 19 29 1009.9 1009.9 0.0
15/04:08pm 18.9 11.3 5.7 42 6.5 WSW 35 54 19 29 1009.3 1009.3 0.0
15/04:00pm 19.9 12.9 5.9 40 7.0 WSW 32 46 17 25 1009.2 1009.2 0.0
15/03:31pm 20.2 12.5 6.9 42 6.7 SW 37 56 20 30 1008.8 1008.8 0.0
15/03:30pm 20.1 12.0 6.8 42 6.7 SW 39 56 21 30 1008.8 1008.8 0.0
15/03:22pm 19.7 12.9 6.8 43 6.5 SW 32 56 17 30 1008.8 1008.8 0.0
15/03:00pm 19.3 12.6 5.4 40 6.8 W 30 39 16 21 1008.5 1008.5 0.0
15/02:30pm 20.2 12.9 5.4 38 7.3 W 33 43 18 23 1008.5 1008.5 0.0
15/02:00pm 19.9 12.8 6.6 42 6.7 W 33 48 18 26 1008.7 1008.7 0.0
15/01:30pm 19.2 13.2 7.0 45 6.2 W 28 43 15 23 1008.7 1008.7 0.0
15/01:00pm 18.7 12.8 7.5 48 5.7 W 28 33 15 18 1008.8 1008.8 0.0
15/12:30pm 19.2 13.6 7.3 46 6.1 W 26 39 14 21 1009.0 1009.0 0.0
15/12:00pm 18.8 13.2 7.3 47 5.8 WNW 26 39 14 21 1009.5 1009.5 0.0
15/11:30am 18.9 12.1 6.7 45 6.1 W 32 39 17 21 1009.8 1009.8 0.0
15/11:00am 18.9 12.4 6.7 45 6.1 WNW 30 46 16 25 1009.9 1009.9 0.0
15/10:30am 18.4 12.4 6.9 47 5.8 W 28 41 15 22 1010.3 1010.3 0.0
15/10:00am 19.2 13.4 7.9 48 5.8 W 28 41 15 22 1010.6 1010.6 0.0
15/09:30am 18.4 13.1 6.9 47 5.8 WNW 24 33 13 18 1010.8 1010.8 0.0
15/09:00am 17.2 12.8 6.7 50 5.2 W 19 28 10 15 1011.1 1011.1 0.0
15/08:30am 15.0 10.9 6.0 55 4.3 WNW 17 22 9 12 1011.3 1011.3 0.0
15/08:00am 12.7 9.6 5.4 61 3.4 WNW 11 17 6 9 1011.4 1011.4 0.0
15/07:30am 10.3 8.0 4.7 68 2.5 NNW 6 7 3 4 1011.5 1011.5 0.0
15/07:00am 9.9 7.5 4.3 68 2.5 NW 6 7 3 4 1011.3 1011.3 0.0
15/06:30am 9.8 7.5 4.8 71 2.2 W 6 7 3 4 1011.0 1011.0 0.0
15/06:00am 9.3 5.6 2.6 63 2.8 W 11 13 6 7 1010.9 1010.9 0.0
15/05:30am 8.8 4.9 -1.3 49 3.9 WSW 9 13 5 7 1010.6 1010.6 0.0
15/05:00am 8.9 3.9 -1.2 49 3.9 WSW 15 20 8 11 1010.4 1010.4 0.0
15/04:30am 8.8 5.0 -1.0 50 3.8 N 9 13 5 7 1009.8 1009.8 0.0
15/04:00am 10.1 5.9 -0.7 47 4.3 N 11 13 6 7 1009.5 1009.5 0.0
15/03:30am 11.9 8.1 -0.9 41 5.2 NW 9 11 5 6 1010.0 1010.0 0.0
15/03:00am 13.0 8.5 -0.3 40 5.5 NNE 13 15 7 8 1009.9 1009.9 0.0
15/02:30am 14.1 10.4 0.0 38 5.9 NNE 9 13 5 7 1010.2 1010.2 0.0
15/02:00am 13.9 9.5 0.2 39 5.8 NNE 13 17 7 9 1010.5 1010.5 0.0
15/01:30am 12.0 8.7 2.5 52 4.1 NNE 9 13 5 7 1010.9 1010.9 0.0
15/01:00am 12.2 8.9 2.6 52 4.2 NE 9 11 5 6 1011.3 1011.3 0.0
15/12:30am 14.0 10.0 2.9 47 5.0 E 13 15 7 8 1011.6 1011.6 0.0
15/12:00am 14.6 11.4 2.8 45 5.3 ENE 9 13 5 7 1012.1 1012.1 0.0
 
Date/Time
CST
Temp
°C
App
Temp
°C
Dew
Point
Rel
Hum
%
Delta-T
°C
Wind Press
QNH
hPa
Press
MSL
hPa
Rain
since 9 am
mm
Dir
 
Spd
km/h
Gust
km/h
Spd
kts
Gust
kts
14/11:30pm 15.8 12.6 2.9 42 5.8 ENE 9 13 5 7 1012.2 1012.2 0.0
14/11:00pm 15.8 12.2 2.9 42 5.8 NE 11 15 6 8 1012.8 1012.8 0.0
14/10:30pm 16.0 12.0 3.1 42 5.9 NNE 13 15 7 8 1013.4 1013.4 0.0
14/10:00pm 16.0 11.7 3.4 43 5.8 NE 15 17 8 9 1014.1 1014.1 0.0
14/09:30pm 15.8 12.1 4.2 46 5.4 NNE 13 13 7 7 1014.4 1014.4 0.0
14/09:00pm 15.4 12.4 3.9 46 5.3 E 9 13 5 7 1014.6 1014.6 0.0
14/08:30pm 14.4 11.7 2.9 46 5.1 E 6 7 3 4 1014.8 1014.8 0.0
14/08:00pm 17.3 14.7 4.3 42 6.1 E 7 9 4 5 1014.7 1014.7 0.0
14/07:30pm 18.5 15.5 3.9 38 6.9 ESE 9 9 5 5 1014.6 1014.6 0.0
14/07:00pm 18.8 15.7 3.8 37 7.1 ESE 9 11 5 6 1014.5 1014.5 0.0
14/06:30pm 19.5 15.6 3.6 35 7.5 ESE 13 15 7 8 1014.2 1014.2 0.0
14/06:00pm 21.5 18.0 3.7 31 8.6 ESE 11 13 6 7 1014.2 1014.2 0.0
14/05:30pm 24.0 20.4 2.8 25 10.2 E 11 13 6 7 1014.3 1014.3 0.0
14/05:00pm 24.7 20.6 2.2 23 10.8 ESE 13 17 7 9 1014.2 1014.2 0.0
14/04:30pm 25.7 21.5 1.8 21 11.4 E 13 19 7 10 1014.4 1014.4 0.0
14/04:00pm 25.2 20.6 1.3 21 11.3 ESE 15 20 8 11 1014.6 1014.6 0.0
14/03:30pm 26.9 23.0 1.3 19 12.2 E 11 22 6 12 1014.8 1014.8 0.0
14/03:00pm 26.5 23.3 1.0 19 12.1 SSW 7 13 4 7 1014.9 1014.9 0.0
14/02:30pm 27.2 22.2 1.6 19 12.3 SW 17 24 9 13 1015.5 1015.4 0.0
14/02:00pm 26.7 22.8 1.2 19 12.2 SW 11 17 6 9 1015.7 1015.6 0.0
14/01:30pm 26.6 22.3 1.1 19 12.1 SW 13 20 7 11 1016.0 1015.9 0.0
14/01:00pm 26.3 22.0 0.9 19 12.0 NW 13 17 7 9 1016.3 1016.2 0.0
14/12:30pm 24.8 21.3 1.0 21 11.1 N 9 17 5 9 1016.9 1016.8 0.0
14/12:00pm 24.8 20.3 2.3 23 10.8 NW 15 22 8 12 1017.7 1017.6 0.0
14/11:30am 23.4 20.1 2.3 25 10.0 NW 9 19 5 10 1018.3 1018.2 0.0
14/11:00am 21.8 19.2 3.0 29 8.9 SE 6 13 3 7 1018.8 1018.7 0.0
14/10:30am 20.7 18.1 3.4 32 8.2 S 6 7 3 4 1019.2 1019.1 0.0
14/10:00am 19.5 17.9 4.4 37 7.3 E 2 6 1 3 1019.5 1019.5 0.0
14/09:30am 17.4 15.4 4.4 42 6.1 NNE 4 7 2 4 1019.3 1019.2 0.0
14/09:00am 15.0 12.0 4.1 48 5.0 SW 9 11 5 6 1020.0 1020.0 0.0
14/08:30am 13.9 10.6 4.5 53 4.3 SSW 11 13 6 7 1020.3 1020.3 0.0
14/08:00am 13.8 10.9 4.4 53 4.3 SW 9 13 5 7 1019.8 1019.8 0.0
14/07:30am 11.4 8.1 4.6 63 3.1 WSW 11 17 6 9 1019.8 1019.8 0.0
14/07:00am 7.3 4.5 1.8 68 2.2 W 6 7 3 4 1019.6 1019.6 0.0
14/06:30am 5.4 2.8 1.0 73 1.7 N 4 6 2 3 1019.1 1019.0 0.0
14/06:00am 5.3 2.2 0.3 70 1.9 WSW 6 7 3 4 1019.3 1019.2 0.0
14/05:30am 5.6 2.3 0.2 68 2.1 W 7 13 4 7 1019.1 1019.0 0.0
14/05:00am 3.4 1.3 -1.0 73 1.6 CALM 0 9 0 5 1018.8 1018.7 0.0
14/04:30am 3.6 1.5 -1.0 72 1.7 CALM 0 0 0 0 1018.5 1018.4 0.0
14/04:00am 3.8 1.7 -0.8 72 1.7 CALM 0 0 0 0 1018.4 1018.3 0.0
14/03:30am 4.3 2.2 -0.9 69 1.9 CALM 0 0 0 0 1018.5 1018.4 0.0
14/03:00am 5.4 3.1 0.2 69 2.0 WSW 2 7 1 4 1018.7 1018.6 0.0
14/02:30am 4.9 1.1 -0.7 67 2.1 WSW 9 9 5 5 1019.3 1019.2 0.0
14/02:00am 6.0 2.7 0.1 66 2.3 NNE 7 7 4 4 1019.6 1019.6 0.0
14/01:30am 5.9 3.9 -0.2 65 2.3 CALM 0 0 0 0 1020.2 1020.2 0.0
14/01:00am 5.9 2.7 -0.6 63 2.5 S 6 11 3 6 1020.9 1020.9 0.0
14/12:30am 6.7 3.9 -0.7 59 2.8 SSW 4 7 2 4 1021.1 1021.1 0.0
14/12:00am 7.6 4.2 -0.4 57 3.1 W 7 11 4 6 1021.4 1021.4 0.0
 
Date/Time
CST
Temp
°C
App
Temp
°C
Dew
Point
Rel
Hum
%
Delta-T
°C
Wind Press
QNH
hPa
Press
MSL
hPa
Rain
since 9 am
mm
Dir
 
Spd
km/h
Gust
km/h
Spd
kts
Gust
kts
13/11:30pm 7.9 4.2 -0.1 57 3.1 WNW 9 13 5 7 1021.6 1021.6 0.0
13/11:00pm 9.7 7.4 0.1 51 3.9 SW 2 7 1 4 1021.6 1021.6 0.0
13/10:30pm 10.9 7.3 0.6 49 4.2 W 9 9 5 5 1021.8 1021.8 0.0
13/10:00pm 7.3 3.1 -0.9 56 3.1 WSW 11 19 6 10 1021.7 1021.7 0.0
13/09:30pm 8.7 6.6 -0.9 51 3.7 CALM 0 2 0 1 1021.3 1021.3 0.0
13/09:00pm 9.1 6.9 -1.3 48 4.0 CALM 0 6 0 3 1021.2 1021.2 0.0
13/08:30pm 10.1 8.0 -1.0 46 4.3 CALM 0 0 0 0 1021.0 1021.0 0.0
13/08:00pm 10.9 8.8 -0.9 44 4.7 CALM 0 0 0 0 1020.9 1020.9 0.0
13/07:30pm 13.8 11.4 -0.3 38 5.8 ENE 2 6 1 3 1020.8 1020.8 0.0
13/07:00pm 14.4 12.3 -0.8 35 6.3 CALM 0 0 0 0 1020.7 1020.7 0.0
13/06:30pm 17.1 13.8 -1.1 29 7.6 NNE 6 7 3 4 1020.4 1020.4 0.0
13/06:00pm 20.2 16.6 -2.2 22 9.5 NNW 7 9 4 5 1020.2 1020.2 0.0
13/05:30pm 22.0 17.5 -3.4 18 10.7 NW 11 17 6 9 1020.1 1020.1 0.0
13/05:00pm 23.0 19.3 -2.6 18 11.0 NNW 7 19 4 10 1020.2 1020.2 0.0
13/04:30pm 23.1 19.1 -2.5 18 11.0 NNW 9 17 5 9 1020.2 1020.2 0.0
13/04:00pm 23.6 19.2 -2.8 17 11.4 NW 11 24 6 13 1020.2 1020.2 0.0
13/03:30pm 23.5 18.7 -2.2 18 11.2 NW 13 20 7 11 1020.5 1020.5 0.0
13/03:00pm 23.0 17.5 -1.8 19 10.8 NW 17 22 9 12 1020.9 1020.9 0.0
13/02:30pm 22.9 17.0 -2.6 18 10.9 NW 19 22 10 12 1021.2 1021.2 0.0
13/02:00pm 22.3 17.0 -0.4 22 10.2 N 17 24 9 13 1021.8 1021.8 0.0
13/01:30pm 22.2 17.7 -0.5 22 10.1 WNW 13 24 7 13 1022.3 1022.3 0.0
13/01:00pm 21.1 17.4 -0.2 24 9.5 NW 9 17 5 9 1022.8 1022.8 0.0
13/12:30pm 21.3 17.3 0.5 25 9.3 NNE 11 17 6 9 1023.4 1023.4 0.0
13/12:00pm 20.4 16.4 0.8 27 8.8 NW 11 22 6 12 1024.0 1024.0 0.0
13/11:30am 19.7 14.9 0.2 27 8.6 NNW 15 26 8 14 1024.4 1024.4 0.0
13/11:00am 18.4 13.6 0.1 29 8.0 N 15 24 8 13 1024.8 1024.8 0.0
13/10:30am 18.0 12.4 0.2 30 7.7 N 19 26 10 14 1025.2 1025.2 0.0

Other Formats:

Comma delimited format used in spreadsheet applications
http://www.bom.gov.au/fwo/IDS60801/IDS60801.95687.axf

JavaScript Object Notation format (JSON) in row-major order
http://www.bom.gov.au/fwo/IDS60801/IDS60801.95687.json